sensor_id;sensor_type;location;lat;lon;timestamp;pressure;altitude;pressure_sealevel;temperature;humidity
36630;BME280;36256;42.154;23.002;2023-04-27T00:01:05;96878.78;;;11.02;63.11
36630;BME280;36256;42.154;23.002;2023-04-27T00:03:32;96882.09;;;11.10;62.09
36630;BME280;36256;42.154;23.002;2023-04-27T00:05:58;96889.09;;;11.05;62.61
36630;BME280;36256;42.154;23.002;2023-04-27T00:08:25;96892.53;;;11.10;62.51
36630;BME280;36256;42.154;23.002;2023-04-27T00:10:52;96890.69;;;11.07;60.53
36630;BME280;36256;42.154;23.002;2023-04-27T00:13:19;96873.50;;;10.86;59.18
36630;BME280;36256;42.154;23.002;2023-04-27T00:15:45;96894.09;;;11.01;61.75
36630;BME280;36256;42.154;23.002;2023-04-27T00:18:12;96894.09;;;11.01;61.71
36630;BME280;36256;42.154;23.002;2023-04-27T00:20:39;96876.59;;;10.88;60.36
36630;BME280;36256;42.154;23.002;2023-04-27T00:23:06;96895.94;;;11.04;60.40
36630;BME280;36256;42.154;23.002;2023-04-27T00:25:32;96894.41;;;11.03;59.87
36630;BME280;36256;42.154;23.002;2023-04-27T00:27:59;96890.50;;;11.01;58.52
36630;BME280;36256;42.154;23.002;2023-04-27T00:30:26;96888.94;;;11.00;59.49
36630;BME280;36256;42.154;23.002;2023-04-27T00:32:52;96901.56;;;11.04;60.74
36630;BME280;36256;42.154;23.002;2023-04-27T00:35:19;96893.28;;;10.92;58.55
36630;BME280;36256;42.154;23.002;2023-04-27T00:37:46;96886.09;;;10.82;58.08
36630;BME280;36256;42.154;23.002;2023-04-27T00:40:12;96888.13;;;10.81;59.53
36630;BME280;36256;42.154;23.002;2023-04-27T00:42:39;96894.53;;;10.82;58.42
36630;BME280;36256;42.154;23.002;2023-04-27T00:45:06;96895.31;;;10.82;59.16
36630;BME280;36256;42.154;23.002;2023-04-27T00:47:33;96897.19;;;10.94;61.46
36630;BME280;36256;42.154;23.002;2023-04-27T00:50:00;96900.78;;;10.95;60.60
36630;BME280;36256;42.154;23.002;2023-04-27T00:52:26;96898.28;;;10.88;59.84
36630;BME280;36256;42.154;23.002;2023-04-27T00:54:56;96898.13;;;10.82;59.60
36630;BME280;36256;42.154;23.002;2023-04-27T00:57:22;96906.81;;;10.75;59.56
36630;BME280;36256;42.154;23.002;2023-04-27T00:59:49;96905.28;;;10.74;61.14
36630;BME280;36256;42.154;23.002;2023-04-27T01:02:16;96912.44;;;10.75;59.39
36630;BME280;36256;42.154;23.002;2023-04-27T01:04:42;96902.78;;;10.76;60.36
36630;BME280;36256;42.154;23.002;2023-04-27T01:07:09;96919.00;;;10.72;60.88
36630;BME280;36256;42.154;23.002;2023-04-27T01:09:36;96912.59;;;10.72;60.56
36630;BME280;36256;42.154;23.002;2023-04-27T01:12:03;96916.16;;;10.63;58.37
36630;BME280;36256;42.154;23.002;2023-04-27T01:14:30;96912.75;;;10.68;60.64
36630;BME280;36256;42.154;23.002;2023-04-27T01:16:56;96914.59;;;10.62;59.57
36630;BME280;36256;42.154;23.002;2023-04-27T01:19:23;96915.25;;;10.66;58.73
36630;BME280;36256;42.154;23.002;2023-04-27T01:21:50;96908.97;;;10.62;58.65
36630;BME280;36256;42.154;23.002;2023-04-27T01:24:17;96907.44;;;10.61;58.90
36630;BME280;36256;42.154;23.002;2023-04-27T01:26:43;96903.69;;;10.55;57.54
36630;BME280;36256;42.154;23.002;2023-04-27T01:29:10;96910.06;;;10.56;58.85
36630;BME280;36256;42.154;23.002;2023-04-27T01:31:37;96916.41;;;10.38;57.58
36630;BME280;36256;42.154;23.002;2023-04-27T01:34:04;96914.34;;;10.30;57.67
36630;BME280;36256;42.154;23.002;2023-04-27T01:36:31;96914.59;;;10.22;57.89
36630;BME280;36256;42.154;23.002;2023-04-27T01:38:58;96911.31;;;10.15;57.37
36630;BME280;36256;42.154;23.002;2023-04-27T01:41:24;96920.63;;;10.12;58.10
36630;BME280;36256;42.154;23.002;2023-04-27T01:43:51;96918.94;;;10.14;57.59
36630;BME280;36256;42.154;23.002;2023-04-27T01:46:17;96917.47;;;10.10;58.07
36630;BME280;36256;42.154;23.002;2023-04-27T01:48:44;96917.78;;;10.03;57.96
36630;BME280;36256;42.154;23.002;2023-04-27T01:51:11;96917.13;;;9.99;58.28
36630;BME280;36256;42.154;23.002;2023-04-27T01:53:37;96911.88;;;10.10;58.14
36630;BME280;36256;42.154;23.002;2023-04-27T01:56:04;96914.34;;;10.08;57.81
36630;BME280;36256;42.154;23.002;2023-04-27T01:58:32;96911.13;;;10.09;58.11
36630;BME280;36256;42.154;23.002;2023-04-27T02:00:58;96907.78;;;10.02;57.61
36630;BME280;36256;42.154;23.002;2023-04-27T02:03:25;96917.25;;;9.95;57.98
36630;BME280;36256;42.154;23.002;2023-04-27T02:05:52;96914.28;;;9.90;59.97
36630;BME280;36256;42.154;23.002;2023-04-27T02:08:18;96925.72;;;10.04;58.90
36630;BME280;36256;42.154;23.002;2023-04-27T02:10:45;96924.94;;;10.04;58.70
36630;BME280;36256;42.154;23.002;2023-04-27T02:13:12;96926.25;;;10.12;59.16
36630;BME280;36256;42.154;23.002;2023-04-27T02:15:38;96929.16;;;10.08;57.91
36630;BME280;36256;42.154;23.002;2023-04-27T02:18:05;96927.81;;;10.13;57.75
36630;BME280;36256;42.154;23.002;2023-04-27T02:20:32;96927.25;;;10.05;58.11
36630;BME280;36256;42.154;23.002;2023-04-27T02:22:58;96938.38;;;10.09;60.16
36630;BME280;36256;42.154;23.002;2023-04-27T02:25:26;96931.00;;;10.02;58.64
36630;BME280;36256;42.154;23.002;2023-04-27T02:27:54;96937.41;;;10.03;59.01
36630;BME280;36256;42.154;23.002;2023-04-27T02:30:21;96932.63;;;9.91;57.68
36630;BME280;36256;42.154;23.002;2023-04-27T02:32:48;96936.97;;;9.83;58.79
36630;BME280;36256;42.154;23.002;2023-04-27T02:35:15;96935.84;;;9.80;58.97
36630;BME280;36256;42.154;23.002;2023-04-27T02:37:41;96941.59;;;9.77;60.33
36630;BME280;36256;42.154;23.002;2023-04-27T02:40:08;96940.47;;;9.74;60.19
36630;BME280;36256;42.154;23.002;2023-04-27T02:42:35;96945.75;;;9.72;58.90
36630;BME280;36256;42.154;23.002;2023-04-27T02:45:05;96953.38;;;9.72;58.96
36630;BME280;36256;42.154;23.002;2023-04-27T02:47:33;96960.47;;;9.64;59.16
36630;BME280;36256;42.154;23.002;2023-04-27T02:50:00;96960.69;;;9.69;60.11
36630;BME280;36256;42.154;23.002;2023-04-27T02:52:26;96966.00;;;9.55;59.55
36630;BME280;36256;42.154;23.002;2023-04-27T02:54:53;96965.69;;;9.52;58.81
36630;BME280;36256;42.154;23.002;2023-04-27T02:57:19;96960.03;;;9.43;59.47
36630;BME280;36256;42.154;23.002;2023-04-27T02:59:46;96973.00;;;9.50;59.89
36630;BME280;36256;42.154;23.002;2023-04-27T03:02:13;96974.38;;;9.45;59.12
36630;BME280;36256;42.154;23.002;2023-04-27T03:04:39;96978.66;;;9.37;58.96
36630;BME280;36256;42.154;23.002;2023-04-27T03:07:06;96976.75;;;9.34;59.67
36630;BME280;36256;42.154;23.002;2023-04-27T03:09:33;96973.63;;;9.32;59.02
36630;BME280;36256;42.154;23.002;2023-04-27T03:11:59;96969.25;;;9.31;59.15
36630;BME280;36256;42.154;23.002;2023-04-27T03:14:26;96973.28;;;9.30;59.95
36630;BME280;36256;42.154;23.002;2023-04-27T03:16:52;96980.44;;;9.31;58.15
36630;BME280;36256;42.154;23.002;2023-04-27T03:19:21;96976.09;;;9.30;60.13
36630;BME280;36256;42.154;23.002;2023-04-27T03:21:48;96982.81;;;9.33;59.95
36630;BME280;36256;42.154;23.002;2023-04-27T03:24:14;96983.13;;;9.35;59.98
36630;BME280;36256;42.154;23.002;2023-04-27T03:26:41;96992.69;;;9.25;62.82
36630;BME280;36256;42.154;23.002;2023-04-27T03:29:08;96998.81;;;9.32;63.55
36630;BME280;36256;42.154;23.002;2023-04-27T03:31:35;96998.59;;;9.39;62.71
36630;BME280;36256;42.154;23.002;2023-04-27T03:34:02;97004.28;;;9.36;61.25
36630;BME280;36256;42.154;23.002;2023-04-27T03:36:28;96991.78;;;9.28;59.42
36630;BME280;36256;42.154;23.002;2023-04-27T03:38:55;96999.38;;;9.27;59.90
36630;BME280;36256;42.154;23.002;2023-04-27T03:41:21;97002.59;;;9.38;61.38
36630;BME280;36256;42.154;23.002;2023-04-27T03:43:48;97012.00;;;9.44;59.42
36630;BME280;36256;42.154;23.002;2023-04-27T03:46:16;97015.13;;;9.46;60.30
36630;BME280;36256;42.154;23.002;2023-04-27T03:48:42;97017.84;;;9.37;59.20
36630;BME280;36256;42.154;23.002;2023-04-27T03:51:09;97018.75;;;9.34;59.02
36630;BME280;36256;42.154;23.002;2023-04-27T03:53:36;97016.94;;;9.40;60.20
36630;BME280;36256;42.154;23.002;2023-04-27T03:56:02;97016.38;;;9.45;59.64
36630;BME280;36256;42.154;23.002;2023-04-27T03:58:29;97024.88;;;9.42;58.29
36630;BME280;36256;42.154;23.002;2023-04-27T04:00:56;97028.00;;;9.44;59.62
36630;BME280;36256;42.154;23.002;2023-04-27T04:03:24;97032.56;;;9.50;60.17
36630;BME280;36256;42.154;23.002;2023-04-27T04:05:51;97035.38;;;9.50;59.44
36630;BME280;36256;42.154;23.002;2023-04-27T04:08:17;97031.03;;;9.49;59.43
36630;BME280;36256;42.154;23.002;2023-04-27T04:10:44;97028.47;;;9.42;58.20
36630;BME280;36256;42.154;23.002;2023-04-27T04:13:10;97030.38;;;9.45;59.66
36630;BME280;36256;42.154;23.002;2023-04-27T04:15:37;97040.53;;;9.52;59.41
36630;BME280;36256;42.154;23.002;2023-04-27T04:18:04;97042.88;;;9.54;57.89
36630;BME280;36256;42.154;23.002;2023-04-27T04:20:33;97046.81;;;9.56;60.32
36630;BME280;36256;42.154;23.002;2023-04-27T04:23:00;97048.50;;;9.54;60.13
36630;BME280;36256;42.154;23.002;2023-04-27T04:25:26;97048.41;;;9.44;58.19
36630;BME280;36256;42.154;23.002;2023-04-27T04:27:53;97053.09;;;9.47;58.43
36630;BME280;36256;42.154;23.002;2023-04-27T04:30:20;97055.63;;;9.55;59.26
36630;BME280;36256;42.154;23.002;2023-04-27T04:32:48;97053.53;;;9.59;58.69
36630;BME280;36256;42.154;23.002;2023-04-27T04:35:15;97053.06;;;9.60;56.95
36630;BME280;36256;42.154;23.002;2023-04-27T04:37:44;97049.22;;;9.67;58.09
36630;BME280;36256;42.154;23.002;2023-04-27T04:40:12;97050.88;;;9.77;59.05
36630;BME280;36256;42.154;23.002;2023-04-27T04:42:39;97056.22;;;9.84;57.59
36630;BME280;36256;42.154;23.002;2023-04-27T04:45:06;97059.34;;;9.86;56.52
36630;BME280;36256;42.154;23.002;2023-04-27T04:47:33;97070.28;;;9.93;56.42
36630;BME280;36256;42.154;23.002;2023-04-27T04:50:00;97056.94;;;9.97;56.87
36630;BME280;36256;42.154;23.002;2023-04-27T04:52:27;97064.06;;;10.10;57.78
36630;BME280;36256;42.154;23.002;2023-04-27T04:54:54;97075.69;;;10.21;56.85
36630;BME280;36256;42.154;23.002;2023-04-27T04:57:20;97080.69;;;10.26;57.53
36630;BME280;36256;42.154;23.002;2023-04-27T04:59:47;97076.84;;;10.33;55.72
36630;BME280;36256;42.154;23.002;2023-04-27T05:02:14;97081.94;;;10.47;57.41
36630;BME280;36256;42.154;23.002;2023-04-27T05:04:41;97080.41;;;10.55;55.72
36630;BME280;36256;42.154;23.002;2023-04-27T05:07:07;97065.44;;;10.49;56.53
36630;BME280;36256;42.154;23.002;2023-04-27T05:09:39;97077.31;;;10.62;55.04
36630;BME280;36256;42.154;23.002;2023-04-27T05:12:06;97074.41;;;10.66;54.38
36630;BME280;36256;42.154;23.002;2023-04-27T05:14:33;97078.34;;;10.77;54.15
36630;BME280;36256;42.154;23.002;2023-04-27T05:17:00;97084.97;;;10.92;55.61
36630;BME280;36256;42.154;23.002;2023-04-27T05:19:30;97081.34;;;10.92;53.08
36630;BME280;36256;42.154;23.002;2023-04-27T05:21:57;97076.47;;;10.83;54.04
36630;BME280;36256;42.154;23.002;2023-04-27T05:24:25;97086.84;;;10.95;55.37
36630;BME280;36256;42.154;23.002;2023-04-27T05:26:52;97088.22;;;10.91;54.09
36630;BME280;36256;42.154;23.002;2023-04-27T05:29:20;97084.97;;;10.92;53.76
36630;BME280;36256;42.154;23.002;2023-04-27T05:31:47;97080.69;;;10.79;53.16
36630;BME280;36256;42.154;23.002;2023-04-27T05:34:13;97075.84;;;10.79;53.38
36630;BME280;36256;42.154;23.002;2023-04-27T05:36:40;97080.91;;;10.63;53.91
36630;BME280;36256;42.154;23.002;2023-04-27T05:39:07;97089.97;;;10.67;54.57
36630;BME280;36256;42.154;23.002;2023-04-27T05:41:33;97089.25;;;10.75;53.41
36630;BME280;36256;42.154;23.002;2023-04-27T05:44:00;97081.03;;;10.90;52.59
36630;BME280;36256;42.154;23.002;2023-04-27T05:46:27;97083.69;;;10.84;51.76
36630;BME280;36256;42.154;23.002;2023-04-27T05:48:53;97084.97;;;10.92;51.73
36630;BME280;36256;42.154;23.002;2023-04-27T05:51:20;97077.47;;;10.89;51.84
36630;BME280;36256;42.154;23.002;2023-04-27T05:53:47;97074.47;;;10.84;52.71
36630;BME280;36256;42.154;23.002;2023-04-27T05:56:13;97081.47;;;10.79;53.00
36630;BME280;36256;42.154;23.002;2023-04-27T05:58:40;97080.56;;;10.82;52.94
36630;BME280;36256;42.154;23.002;2023-04-27T06:01:07;97082.41;;;10.76;51.77
36630;BME280;36256;42.154;23.002;2023-04-27T06:03:34;97083.94;;;10.77;52.32
36630;BME280;36256;42.154;23.002;2023-04-27T06:06:00;97080.31;;;10.68;52.58
36630;BME280;36256;42.154;23.002;2023-04-27T06:08:28;97055.50;;;10.57;53.73
36630;BME280;36256;42.154;23.002;2023-04-27T06:10:55;97090.91;;;10.64;53.86
36630;BME280;36256;42.154;23.002;2023-04-27T06:13:21;97090.94;;;10.73;55.20
36630;BME280;36256;42.154;23.002;2023-04-27T06:15:48;97096.56;;;10.73;54.16
36630;BME280;36256;42.154;23.002;2023-04-27T06:18:15;97088.28;;;10.69;54.79
36630;BME280;36256;42.154;23.002;2023-04-27T06:20:42;97087.88;;;10.80;54.19
36630;BME280;36256;42.154;23.002;2023-04-27T06:23:08;97082.41;;;10.76;53.94
36630;BME280;36256;42.154;23.002;2023-04-27T06:25:35;97083.13;;;10.68;52.60
36630;BME280;36256;42.154;23.002;2023-04-27T06:28:04;97055.16;;;10.55;52.19
36630;BME280;36256;42.154;23.002;2023-04-27T06:30:30;97076.06;;;10.94;51.98
36630;BME280;36256;42.154;23.002;2023-04-27T06:32:57;97071.59;;;11.05;54.40
36630;BME280;36256;42.154;23.002;2023-04-27T06:35:24;97069.47;;;11.19;52.73
36630;BME280;36256;42.154;23.002;2023-04-27T06:37:50;97067.31;;;11.32;53.09
36630;BME280;36256;42.154;23.002;2023-04-27T06:40:17;97073.28;;;11.52;53.97
36630;BME280;36256;42.154;23.002;2023-04-27T06:42:43;97075.22;;;11.73;50.94
36630;BME280;36256;42.154;23.002;2023-04-27T06:45:10;97052.44;;;11.80;50.76
36630;BME280;36256;42.154;23.002;2023-04-27T06:47:37;97059.13;;;11.73;49.40
36630;BME280;36256;42.154;23.002;2023-04-27T06:50:04;97051.47;;;11.83;49.35
36630;BME280;36256;42.154;23.002;2023-04-27T06:52:31;97054.75;;;12.09;48.45
36630;BME280;36256;42.154;23.002;2023-04-27T06:54:58;97055.50;;;12.36;47.69
36630;BME280;36256;42.154;23.002;2023-04-27T06:57:25;97056.97;;;12.74;48.28
36630;BME280;36256;42.154;23.002;2023-04-27T06:59:53;97036.44;;;13.24;47.81
36630;BME280;36256;42.154;23.002;2023-04-27T07:02:19;97036.88;;;13.55;45.33
36630;BME280;36256;42.154;23.002;2023-04-27T07:04:48;97035.94;;;13.96;49.41
36630;BME280;36256;42.154;23.002;2023-04-27T07:07:15;97021.84;;;14.26;45.10
36630;BME280;36256;42.154;23.002;2023-04-27T07:09:42;97024.44;;;14.38;45.40
36630;BME280;36256;42.154;23.002;2023-04-27T07:12:08;97009.72;;;14.78;45.46
36630;BME280;36256;42.154;23.002;2023-04-27T07:14:35;97028.94;;;14.74;43.28
36630;BME280;36256;42.154;23.002;2023-04-27T07:17:02;97007.47;;;14.82;44.16
36630;BME280;36256;42.154;23.002;2023-04-27T07:19:28;96999.19;;;15.28;43.37
36630;BME280;36256;42.154;23.002;2023-04-27T07:21:55;97010.06;;;15.90;44.68
36630;BME280;36256;42.154;23.002;2023-04-27T07:24:22;97001.97;;;16.03;42.70
36630;BME280;36256;42.154;23.002;2023-04-27T07:26:48;97011.94;;;16.44;42.76
36630;BME280;36256;42.154;23.002;2023-04-27T07:29:15;97010.06;;;16.41;41.41
36630;BME280;36256;42.154;23.002;2023-04-27T07:31:52;96992.47;;;16.06;39.74
36630;BME280;36256;42.154;23.002;2023-04-27T07:34:18;97002.25;;;15.85;43.46
36630;BME280;36256;42.154;23.002;2023-04-27T07:36:45;96997.44;;;16.11;43.01
36630;BME280;36256;42.154;23.002;2023-04-27T07:39:12;96994.91;;;16.64;41.58
36630;BME280;36256;42.154;23.002;2023-04-27T07:41:39;97011.13;;;16.43;43.59
36630;BME280;36256;42.154;23.002;2023-04-27T07:44:06;97008.00;;;16.62;42.94
36630;BME280;36256;42.154;23.002;2023-04-27T07:46:33;96998.53;;;16.44;44.16
36630;BME280;36256;42.154;23.002;2023-04-27T07:48:59;97006.91;;;16.54;43.23
36630;BME280;36256;42.154;23.002;2023-04-27T07:51:26;96981.03;;;17.03;41.28
36630;BME280;36256;42.154;23.002;2023-04-27T07:53:55;96999.91;;;17.11;43.24
36630;BME280;36256;42.154;23.002;2023-04-27T07:56:22;97009.13;;;17.06;42.53
36630;BME280;36256;42.154;23.002;2023-04-27T07:58:49;96997.44;;;16.62;41.11
36630;BME280;36256;42.154;23.002;2023-04-27T08:01:16;97003.44;;;16.44;42.25
36630;BME280;36256;42.154;23.002;2023-04-27T08:03:46;96998.03;;;16.46;41.45
36630;BME280;36256;42.154;23.002;2023-04-27T08:06:13;97005.88;;;16.82;41.79
36630;BME280;36256;42.154;23.002;2023-04-27T08:08:41;97000.03;;;16.91;43.12
36630;BME280;36256;42.154;23.002;2023-04-27T08:11:09;96994.31;;;16.60;41.82
36630;BME280;36256;42.154;23.002;2023-04-27T08:13:36;96993.31;;;16.37;41.64
36630;BME280;36256;42.154;23.002;2023-04-27T08:16:03;96990.06;;;15.18;44.00
36630;BME280;36256;42.154;23.002;2023-04-27T08:18:29;96974.25;;;15.26;46.73
36630;BME280;36256;42.154;23.002;2023-04-27T08:20:56;96991.41;;;16.03;43.56
36630;BME280;36256;42.154;23.002;2023-04-27T08:23:26;97000.19;;;16.31;41.21
36630;BME280;36256;42.154;23.002;2023-04-27T08:25:53;96995.09;;;16.35;43.82
36630;BME280;36256;42.154;23.002;2023-04-27T08:28:20;96987.34;;;16.30;42.84
36630;BME280;36256;42.154;23.002;2023-04-27T08:30:46;96992.34;;;16.66;43.72
36630;BME280;36256;42.154;23.002;2023-04-27T08:33:13;97004.41;;;16.92;45.24
36630;BME280;36256;42.154;23.002;2023-04-27T08:35:39;96989.84;;;16.79;41.15
36630;BME280;36256;42.154;23.002;2023-04-27T08:38:07;96994.13;;;17.00;44.46
36630;BME280;36256;42.154;23.002;2023-04-27T08:40:33;96998.41;;;17.21;44.84
36630;BME280;36256;42.154;23.002;2023-04-27T08:43:00;97005.50;;;17.43;44.28
36630;BME280;36256;42.154;23.002;2023-04-27T08:45:27;96986.41;;;17.38;41.51
36630;BME280;36256;42.154;23.002;2023-04-27T08:47:54;96992.75;;;17.21;42.74
36630;BME280;36256;42.154;23.002;2023-04-27T08:50:21;96999.81;;;17.00;42.42
36630;BME280;36256;42.154;23.002;2023-04-27T08:52:49;96988.47;;;16.64;41.31
36630;BME280;36256;42.154;23.002;2023-04-27T08:55:17;96964.50;;;16.39;42.30
36630;BME280;36256;42.154;23.002;2023-04-27T08:57:55;96988.09;;;16.05;41.30
36630;BME280;36256;42.154;23.002;2023-04-27T09:00:22;96989.44;;;16.35;44.78
36630;BME280;36256;42.154;23.002;2023-04-27T09:02:49;96984.91;;;16.43;43.50
36630;BME280;36256;42.154;23.002;2023-04-27T09:05:21;96977.53;;;16.51;45.81
36630;BME280;36256;42.154;23.002;2023-04-27T09:11:33;96981.56;;;16.70;43.01
36630;BME280;36256;42.154;23.002;2023-04-27T09:14:36;96980.63;;;16.53;40.35
36630;BME280;36256;42.154;23.002;2023-04-27T09:17:39;96974.31;;;16.69;40.08
36630;BME280;36256;42.154;23.002;2023-04-27T09:20:46;96962.22;;;16.69;39.65
36630;BME280;36256;42.154;23.002;2023-04-27T09:23:49;96955.75;;;16.99;43.45
36630;BME280;36256;42.154;23.002;2023-04-27T09:26:52;96973.22;;;17.35;38.30
36630;BME280;36256;42.154;23.002;2023-04-27T09:29:55;96975.88;;;17.44;42.30
36630;BME280;36256;42.154;23.002;2023-04-27T09:32:59;96951.97;;;17.56;42.36
36630;BME280;36256;42.154;23.002;2023-04-27T09:36:04;96950.88;;;17.42;36.54
36630;BME280;36256;42.154;23.002;2023-04-27T09:39:07;96950.53;;;17.35;41.33
36630;BME280;36256;42.154;23.002;2023-04-27T09:42:11;96954.69;;;17.34;41.24
36630;BME280;36256;42.154;23.002;2023-04-27T09:45:14;96949.53;;;17.38;40.60
36630;BME280;36256;42.154;23.002;2023-04-27T09:48:20;96952.41;;;17.43;37.73
36630;BME280;36256;42.154;23.002;2023-04-27T09:51:23;96954.56;;;17.59;42.81
36630;BME280;36256;42.154;23.002;2023-04-27T09:54:28;96932.63;;;17.60;35.24
36630;BME280;36256;42.154;23.002;2023-04-27T10:01:12;96926.00;;;17.74;38.46
36630;BME280;36256;42.154;23.002;2023-04-27T10:07:29;96920.50;;;17.54;42.55
36630;BME280;36256;42.154;23.002;2023-04-27T10:10:47;96938.94;;;17.91;37.33
36630;BME280;36256;42.154;23.002;2023-04-27T10:13:53;96936.31;;;17.77;38.95
36630;BME280;36256;42.154;23.002;2023-04-27T10:16:56;96939.88;;;17.61;39.67
36630;BME280;36256;42.154;23.002;2023-04-27T10:20:04;96922.16;;;17.82;39.83
36630;BME280;36256;42.154;23.002;2023-04-27T10:23:07;96935.25;;;17.69;nan
36630;BME280;36256;42.154;23.002;2023-04-27T10:26:10;96947.19;;;17.36;40.00
36630;BME280;36256;42.154;23.002;2023-04-27T10:29:14;96941.97;;;17.23;38.79
36630;BME280;36256;42.154;23.002;2023-04-27T10:32:23;96929.63;;;17.26;41.41
36630;BME280;36256;42.154;23.002;2023-04-27T10:35:03;96947.25;;;17.42;39.11
36630;BME280;36256;42.154;23.002;2023-04-27T11:00:25;96931.81;;;17.48;36.98
36630;BME280;36256;42.154;23.002;2023-04-27T11:02:54;96939.72;;;17.39;37.63
36630;BME280;36256;42.154;23.002;2023-04-27T11:05:23;96918.34;;;17.38;36.34
36630;BME280;36256;42.154;23.002;2023-04-27T11:07:51;96918.47;;;17.12;40.62
36630;BME280;36256;42.154;23.002;2023-04-27T11:10:18;96924.22;;;17.28;37.66
36630;BME280;36256;42.154;23.002;2023-04-27T11:12:45;96925.53;;;17.33;40.17
36630;BME280;36256;42.154;23.002;2023-04-27T11:15:12;96938.94;;;17.38;39.52
36630;BME280;36256;42.154;23.002;2023-04-27T11:17:39;96928.91;;;17.43;39.91
36630;BME280;36256;42.154;23.002;2023-04-27T11:20:07;96938.13;;;17.26;39.93
36630;BME280;36256;42.154;23.002;2023-04-27T11:22:42;96915.91;;;17.19;36.90
36630;BME280;36256;42.154;23.002;2023-04-27T11:25:10;96919.81;;;17.22;38.50
36630;BME280;36256;42.154;23.002;2023-04-27T11:27:38;96940.00;;;17.41;41.43
36630;BME280;36256;42.154;23.002;2023-04-27T11:30:06;96910.63;;;17.44;37.47
36630;BME280;36256;42.154;23.002;2023-04-27T11:32:36;96933.84;;;17.48;37.65
36630;BME280;36256;42.154;23.002;2023-04-27T11:35:03;96920.69;;;17.45;41.59
36630;BME280;36256;42.154;23.002;2023-04-27T11:37:30;96943.88;;;17.43;39.86
36630;BME280;36256;42.154;23.002;2023-04-27T11:39:59;96944.66;;;17.44;35.92
36630;BME280;36256;42.154;23.002;2023-04-27T11:42:27;96911.22;;;17.05;37.96
36630;BME280;36256;42.154;23.002;2023-04-27T11:45:02;96914.16;;;16.85;39.26
36630;BME280;36256;42.154;23.002;2023-04-27T11:47:32;96909.13;;;16.64;36.71
36630;BME280;36256;42.154;23.002;2023-04-27T11:50:00;96923.22;;;16.89;38.55
36630;BME280;36256;42.154;23.002;2023-04-27T11:52:28;96930.16;;;16.88;36.94
36630;BME280;36256;42.154;23.002;2023-04-27T11:54:55;96923.16;;;16.78;35.73
36630;BME280;36256;42.154;23.002;2023-04-27T11:57:30;96912.75;;;16.64;37.96
36630;BME280;36256;42.154;23.002;2023-04-27T11:59:58;96921.53;;;16.66;38.83
36630;BME280;36256;42.154;23.002;2023-04-27T12:02:29;96929.63;;;16.84;39.23
36630;BME280;36256;42.154;23.002;2023-04-27T12:04:57;96936.44;;;17.03;40.31
36630;BME280;36256;42.154;23.002;2023-04-27T12:07:25;96930.00;;;17.03;38.86
36630;BME280;36256;42.154;23.002;2023-04-27T12:09:52;96931.72;;;16.89;34.99
36630;BME280;36256;42.154;23.002;2023-04-27T12:12:19;96935.88;;;16.57;37.51
36630;BME280;36256;42.154;23.002;2023-04-27T12:14:48;96924.25;;;16.55;39.58
36630;BME280;36256;42.154;23.002;2023-04-27T12:17:15;96932.00;;;16.60;38.84
36630;BME280;36256;42.154;23.002;2023-04-27T12:19:41;96929.44;;;16.62;36.41
36630;BME280;36256;42.154;23.002;2023-04-27T12:22:09;96935.13;;;16.62;40.11
36630;BME280;36256;42.154;23.002;2023-04-27T12:24:35;96927.03;;;16.81;38.58
36630;BME280;36256;42.154;23.002;2023-04-27T12:27:03;96904.41;;;16.86;36.22
36630;BME280;36256;42.154;23.002;2023-04-27T12:29:30;96924.03;;;16.95;36.96
36630;BME280;36256;42.154;23.002;2023-04-27T12:31:58;96919.72;;;16.69;36.99
36630;BME280;36256;42.154;23.002;2023-04-27T12:34:25;96933.19;;;16.79;38.15
36630;BME280;36256;42.154;23.002;2023-04-27T12:36:52;96927.53;;;16.79;35.94
36630;BME280;36256;42.154;23.002;2023-04-27T12:39:21;96931.72;;;16.89;37.00
36630;BME280;36256;42.154;23.002;2023-04-27T12:41:50;96926.59;;;16.93;36.35
36630;BME280;36256;42.154;23.002;2023-04-27T12:44:18;96926.59;;;16.93;40.44
36630;BME280;36256;42.154;23.002;2023-04-27T12:46:45;96938.50;;;17.03;39.59
36630;BME280;36256;42.154;23.002;2023-04-27T12:49:14;96924.09;;;17.06;36.02
36630;BME280;36256;42.154;23.002;2023-04-27T12:51:41;96931.31;;;17.07;38.47
36630;BME280;36256;42.154;23.002;2023-04-27T12:54:08;96925.09;;;16.98;35.88
36630;BME280;36256;42.154;23.002;2023-04-27T12:56:36;96915.28;;;16.93;36.21
36630;BME280;36256;42.154;23.002;2023-04-27T12:59:02;96924.88;;;17.07;34.71
36630;BME280;36256;42.154;23.002;2023-04-27T13:01:30;96928.28;;;17.16;40.12
36630;BME280;36256;42.154;23.002;2023-04-27T13:04:01;96932.09;;;17.08;38.47
36630;BME280;36256;42.154;23.002;2023-04-27T13:06:29;96909.72;;;17.15;37.39
36630;BME280;36256;42.154;23.002;2023-04-27T13:08:58;96913.84;;;17.14;37.64
36630;BME280;36256;42.154;23.002;2023-04-27T13:11:25;96907.69;;;17.21;38.24
36630;BME280;36256;42.154;23.002;2023-04-27T13:13:52;96922.13;;;17.23;35.63
36630;BME280;36256;42.154;23.002;2023-04-27T13:16:20;96920.88;;;17.30;39.20
36630;BME280;36256;42.154;23.002;2023-04-27T13:18:50;96910.75;;;17.12;39.19
36630;BME280;36256;42.154;23.002;2023-04-27T13:21:17;96912.34;;;17.19;35.48
36630;BME280;36256;42.154;23.002;2023-04-27T13:23:45;96913.09;;;17.19;34.52
36630;BME280;36256;42.154;23.002;2023-04-27T13:26:14;96905.81;;;17.13;35.99
36630;BME280;36256;42.154;23.002;2023-04-27T13:28:41;96898.31;;;17.04;37.91
36630;BME280;36256;42.154;23.002;2023-04-27T13:31:08;96913.88;;;17.20;40.98
36630;BME280;36256;42.154;23.002;2023-04-27T13:33:40;96914.91;;;17.22;37.36
36630;BME280;36256;42.154;23.002;2023-04-27T13:36:11;96912.09;;;17.28;34.06
36630;BME280;36256;42.154;23.002;2023-04-27T13:38:38;96911.81;;;17.20;33.41
36630;BME280;36256;42.154;23.002;2023-04-27T13:41:05;96920.53;;;17.17;33.05